createdAt,value
2023-06-19T00:01:22.458Z,100513.41
2023-06-19T00:03:50.482Z,100501.63
2023-06-19T00:06:18.408Z,100501.00
2023-06-19T00:08:46.317Z,100508.50
2023-06-19T00:11:14.112Z,100502.22
2023-06-19T00:13:41.976Z,100508.19
2023-06-19T00:16:09.905Z,100500.44
2023-06-19T00:18:41.259Z,100502.66
2023-06-19T00:21:10.000Z,100501.22
2023-06-19T00:23:37.874Z,100505.38
2023-06-19T00:26:07.813Z,100497.28
2023-06-19T00:28:35.762Z,100495.34
2023-06-19T00:31:03.548Z,100489.78
2023-06-19T00:33:31.353Z,100485.34
2023-06-19T00:36:00.459Z,100477.03
2023-06-19T00:38:28.275Z,100483.22
2023-06-19T00:40:56.607Z,100480.00
2023-06-19T00:43:24.456Z,100479.75
2023-06-19T00:45:52.289Z,100472.59
2023-06-19T00:48:20.257Z,100477.56
2023-06-19T00:50:48.004Z,100464.06
2023-06-19T00:53:17.309Z,100471.47
2023-06-19T00:55:46.386Z,100464.13
2023-06-19T00:58:14.312Z,100465.34
2023-06-19T01:00:47.437Z,100457.75
2023-06-19T01:03:20.759Z,100455.66
2023-06-19T01:05:53.374Z,100451.28
2023-06-19T01:08:37.261Z,100449.19
2023-06-19T01:11:14.802Z,100455.91
2023-06-19T01:13:59.360Z,100446.19
2023-06-19T01:16:27.897Z,100440.59
2023-06-19T01:18:56.780Z,100437.81
2023-06-19T01:21:24.914Z,100426.94
2023-06-19T01:23:54.089Z,100435.84
2023-06-19T01:26:27.464Z,100436.31
2023-06-19T01:28:56.665Z,100440.56
2023-06-19T01:31:29.910Z,100437.97
2023-06-19T01:33:58.556Z,100445.22
2023-06-19T01:36:27.930Z,100429.72
2023-06-19T01:38:59.555Z,100441.06
2023-06-19T01:41:28.138Z,100441.06
2023-06-19T01:43:56.631Z,100431.59
2023-06-19T01:46:33.742Z,100424.31
2023-06-19T01:49:08.855Z,100426.38
2023-06-19T01:51:36.917Z,100431.31
2023-06-19T01:54:06.733Z,100426.72
2023-06-19T01:56:34.783Z,100434.72
2023-06-19T01:59:02.980Z,100430.78
2023-06-19T02:01:31.160Z,100433.97
2023-06-19T02:03:59.098Z,100431.59
2023-06-19T02:06:27.220Z,100433.00
2023-06-19T02:08:55.138Z,100436.88
2023-06-19T02:11:24.384Z,100441.84
2023-06-19T02:13:53.355Z,100433.19
2023-06-19T02:16:21.239Z,100436.06
2023-06-19T02:18:50.876Z,100429.38
2023-06-19T02:21:18.911Z,100423.66
2023-06-19T02:23:46.775Z,100417.47
2023-06-19T02:26:14.787Z,100419.06
2023-06-19T02:28:44.012Z,100416.22
2023-06-19T02:31:12.887Z,100407.03
2023-06-19T02:33:40.767Z,100409.50
2023-06-19T02:36:08.666Z,100396.59
2023-06-19T02:38:36.781Z,100396.72
2023-06-19T02:41:04.708Z,100386.41
2023-06-19T02:43:34.423Z,100383.22
2023-06-19T02:46:03.949Z,100383.56
2023-06-19T02:48:31.999Z,100385.44
2023-06-19T02:51:00.814Z,100397.16
2023-06-19T02:53:28.824Z,100385.66
2023-06-19T02:55:56.731Z,100390.50
2023-06-19T02:58:24.702Z,100385.28
2023-06-19T03:00:52.987Z,100383.84
2023-06-19T03:03:24.073Z,100380.66
2023-06-19T03:05:52.322Z,100383.97
2023-06-19T03:08:20.255Z,100378.31
2023-06-19T03:10:48.297Z,100376.97
2023-06-19T03:13:16.213Z,100379.06
2023-06-19T03:15:44.225Z,100378.06
2023-06-19T03:18:12.249Z,100376.78
2023-06-19T03:20:42.589Z,100380.47
2023-06-19T03:23:10.553Z,100375.72
2023-06-19T03:25:43.770Z,100377.28
2023-06-19T03:28:12.450Z,100376.50
2023-06-19T03:30:40.457Z,100381.81
2023-06-19T03:33:09.008Z,100381.94
2023-06-19T03:35:45.540Z,100385.09
2023-06-19T03:38:31.991Z,100391.59
2023-06-19T03:40:59.927Z,100389.28
2023-06-19T03:43:28.024Z,100397.66
2023-06-19T03:45:56.054Z,100390.34
2023-06-19T03:48:24.294Z,100398.72
2023-06-19T03:50:53.565Z,100391.28
2023-06-19T03:53:21.525Z,100398.16
2023-06-19T03:55:49.404Z,100403.47
2023-06-19T03:58:17.364Z,100399.09
2023-06-19T04:00:45.399Z,100404.97
2023-06-19T04:03:13.890Z,100419.00
2023-06-19T04:05:43.434Z,100414.59
2023-06-19T04:08:14.842Z,100412.69
2023-06-19T04:10:45.087Z,100415.94
2023-06-19T04:13:12.986Z,100413.22
2023-06-19T04:15:41.089Z,100406.91
2023-06-19T04:18:08.992Z,100404.53
2023-06-19T04:20:38.701Z,100405.34
2023-06-19T04:23:06.522Z,100402.50
2023-06-19T04:25:35.769Z,100402.78
2023-06-19T04:28:04.770Z,100415.31
2023-06-19T04:30:32.572Z,100416.44
2023-06-19T04:33:01.158Z,100420.66
2023-06-19T04:35:29.062Z,100425.63
2023-06-19T04:37:56.899Z,100426.25
2023-06-19T04:40:26.638Z,100432.41
2023-06-19T04:42:56.394Z,100430.50
2023-06-19T04:45:24.177Z,100430.75
2023-06-19T04:47:54.351Z,100427.00
2023-06-19T04:50:23.023Z,100419.06
2023-06-19T04:52:52.251Z,100425.47
2023-06-19T04:55:20.902Z,100426.47
2023-06-19T04:57:48.816Z,100433.16
2023-06-19T05:00:20.398Z,100428.03
2023-06-19T05:02:48.865Z,100409.88
2023-06-19T05:05:17.099Z,100416.72
2023-06-19T05:07:46.186Z,100432.22
2023-06-19T05:10:14.101Z,100437.94
2023-06-19T05:12:41.895Z,100440.59
2023-06-19T05:15:10.791Z,100436.53
2023-06-19T05:17:40.381Z,100434.28
2023-06-19T05:20:09.540Z,100437.41
2023-06-19T05:22:38.202Z,100443.34
2023-06-19T05:25:06.736Z,100440.81
2023-06-19T05:27:34.545Z,100438.38
2023-06-19T05:30:02.417Z,100444.19
2023-06-19T05:32:30.295Z,100445.44
2023-06-19T05:34:59.455Z,100445.03
2023-06-19T05:37:28.157Z,100442.97
2023-06-19T05:39:56.068Z,100443.13
2023-06-19T05:42:24.037Z,100448.34
2023-06-19T05:44:51.926Z,100443.63
2023-06-19T05:47:21.745Z,100438.31
2023-06-19T05:49:49.755Z,100452.56
2023-06-19T05:52:19.258Z,100446.47
2023-06-19T05:54:47.065Z,100455.06
2023-06-19T05:57:17.071Z,100451.56
2023-06-19T05:59:45.092Z,100453.19
2023-06-19T06:02:12.865Z,100459.06
2023-06-19T06:04:40.713Z,100461.78
2023-06-19T06:07:09.032Z,100460.06
2023-06-19T06:09:38.233Z,100463.97
2023-06-19T06:12:07.199Z,100470.59
2023-06-19T06:14:34.960Z,100467.00
2023-06-19T06:17:03.943Z,100464.25
2023-06-19T06:19:33.110Z,100466.56
2023-06-19T06:22:01.382Z,100467.66
2023-06-19T06:24:29.219Z,100476.44
2023-06-19T06:26:59.973Z,100484.75
2023-06-19T06:29:27.876Z,100482.19
2023-06-19T06:32:05.057Z,100482.25
2023-06-19T06:34:44.998Z,100482.84
2023-06-19T06:37:12.848Z,100486.59
2023-06-19T06:39:40.847Z,100486.84
2023-06-19T06:42:09.934Z,100486.81
2023-06-19T06:44:37.752Z,100493.50
2023-06-19T06:47:05.735Z,100492.00
2023-06-19T06:49:33.508Z,100496.16
2023-06-19T06:52:02.073Z,100487.22
2023-06-19T06:54:29.852Z,100492.66
2023-06-19T06:56:59.403Z,100496.41
2023-06-19T06:59:29.251Z,100492.50
2023-06-19T07:01:57.639Z,100498.50
2023-06-19T07:04:25.743Z,100499.34
2023-06-19T07:06:53.659Z,100500.41
2023-06-19T07:09:22.271Z,100500.59
2023-06-19T07:11:53.237Z,100504.44
2023-06-19T07:14:24.128Z,100509.56
2023-06-19T07:16:53.305Z,100511.50
2023-06-19T07:19:21.248Z,100507.72
2023-06-19T07:21:49.435Z,100508.41
2023-06-19T07:24:17.285Z,100501.50
2023-06-19T07:26:45.147Z,100499.41
2023-06-19T07:29:13.069Z,100513.81
2023-06-19T07:31:43.676Z,100508.06
2023-06-19T07:34:13.187Z,100504.53
2023-06-19T07:36:41.015Z,100509.53
2023-06-19T07:39:09.044Z,100513.03
2023-06-19T07:41:36.872Z,100510.41
2023-06-19T07:44:04.973Z,100519.25
2023-06-19T07:46:32.939Z,100520.47
2023-06-19T07:49:00.958Z,100520.16
2023-06-19T07:51:30.131Z,100526.34
2023-06-19T07:53:57.991Z,100523.53
2023-06-19T07:56:25.820Z,100522.81
2023-06-19T07:58:53.759Z,100523.41
2023-06-19T08:01:21.618Z,100518.72
2023-06-19T08:03:49.611Z,100525.59
2023-06-19T08:06:17.646Z,100523.78
2023-06-19T08:08:47.771Z,100520.19
2023-06-19T08:11:15.934Z,100527.16
2023-06-19T08:13:43.734Z,100520.59
2023-06-19T08:16:11.666Z,100531.19
2023-06-19T08:18:39.519Z,100525.94
2023-06-19T08:21:07.571Z,100523.81
2023-06-19T08:23:35.514Z,100530.19
2023-06-19T08:26:05.252Z,100527.34
2023-06-19T08:28:34.501Z,100522.63
2023-06-19T08:31:02.417Z,100526.53
2023-06-19T08:33:36.828Z,100531.75
2023-06-19T08:36:05.256Z,100526.16
2023-06-19T08:38:33.050Z,100526.13
2023-06-19T08:41:01.129Z,100522.53
2023-06-19T08:43:30.472Z,100522.97
2023-06-19T08:46:09.593Z,100526.00
2023-06-19T08:48:37.817Z,100519.06
2023-06-19T08:51:06.295Z,100524.41
2023-06-19T08:53:37.015Z,100524.63
2023-06-19T08:56:06.891Z,100531.44
2023-06-19T08:58:36.036Z,100530.00
2023-06-19T09:01:04.008Z,100522.09
2023-06-19T09:03:31.942Z,100527.66
2023-06-19T09:06:05.262Z,100542.47
2023-06-19T09:08:33.955Z,100534.84
2023-06-19T09:11:03.236Z,100534.38
2023-06-19T09:13:32.047Z,100533.41
2023-06-19T09:16:04.153Z,100531.84
2023-06-19T09:18:33.098Z,100530.91
2023-06-19T09:21:01.079Z,100535.53
2023-06-19T09:23:28.892Z,100536.09
2023-06-19T09:26:00.413Z,100525.41
2023-06-19T09:28:34.299Z,100536.50
2023-06-19T09:31:06.230Z,100538.19
2023-06-19T09:33:35.880Z,100547.00
2023-06-19T09:36:05.634Z,100542.53
2023-06-19T09:38:35.983Z,100548.44
2023-06-19T09:41:05.318Z,100542.34
2023-06-19T09:43:38.093Z,100541.44
2023-06-19T09:46:08.848Z,100539.75
2023-06-19T09:48:43.224Z,100549.31
2023-06-19T09:51:18.923Z,100552.41
2023-06-19T09:53:48.000Z,100549.25
2023-06-19T09:56:16.537Z,100553.31
2023-06-19T09:58:45.458Z,100555.88
2023-06-19T10:01:16.275Z,100555.91
2023-06-19T10:03:44.582Z,100566.66
2023-06-19T10:06:16.906Z,100572.84
2023-06-19T10:08:46.365Z,100567.31
2023-06-19T10:11:14.825Z,100576.50
2023-06-19T10:13:44.207Z,100566.34
2023-06-19T10:16:23.544Z,100573.00
2023-06-19T10:18:52.682Z,100575.78
2023-06-19T10:21:21.006Z,100581.19
2023-06-19T10:23:57.154Z,100577.47
2023-06-19T10:26:33.347Z,100584.78
2023-06-19T10:29:01.392Z,100580.94
2023-06-19T10:31:30.740Z,100578.78
2023-06-19T10:33:58.778Z,100575.97
2023-06-19T10:36:27.627Z,100579.31
2023-06-19T10:38:56.355Z,100580.19
2023-06-19T10:41:26.030Z,100575.97
2023-06-19T10:43:59.356Z,100576.38
2023-06-19T10:46:33.019Z,100573.78
2023-06-19T10:49:02.846Z,100579.00
2023-06-19T10:51:30.804Z,100577.22
2023-06-19T10:53:59.393Z,100570.53
2023-06-19T10:56:27.566Z,100568.72
2023-06-19T10:59:02.659Z,100572.44
2023-06-19T11:01:37.074Z,100582.06
2023-06-19T11:04:07.124Z,100574.66
2023-06-19T11:06:38.368Z,100585.44
2023-06-19T11:09:06.685Z,100590.53
2023-06-19T11:11:38.797Z,100577.28
2023-06-19T11:14:07.354Z,100566.09
2023-06-19T11:16:39.653Z,100578.38
2023-06-19T11:19:09.164Z,100570.69
2023-06-19T11:21:39.275Z,100584.22
2023-06-19T11:24:08.818Z,100577.22
2023-06-19T11:26:39.653Z,100587.81
2023-06-19T11:29:17.202Z,100581.81
2023-06-19T11:31:46.559Z,100584.91
2023-06-19T11:34:14.539Z,100580.63
2023-06-19T11:36:44.272Z,100573.69
2023-06-19T11:39:14.640Z,100580.53
2023-06-19T11:41:45.729Z,100584.69
2023-06-19T11:44:13.635Z,100593.03
2023-06-19T11:46:41.595Z,100588.38
2023-06-19T11:49:13.751Z,100600.00
2023-06-19T11:51:41.945Z,100592.44
2023-06-19T11:54:11.021Z,100605.31
2023-06-19T11:56:39.443Z,100590.28
2023-06-19T11:59:07.356Z,100591.31
2023-06-19T12:01:36.257Z,100599.19
2023-06-19T12:04:05.832Z,100596.56
2023-06-19T12:06:36.559Z,100596.41
2023-06-19T12:09:05.734Z,100599.91
2023-06-19T12:11:33.845Z,100601.97
2023-06-19T12:14:02.244Z,100596.34
2023-06-19T12:16:30.695Z,100596.44
2023-06-19T12:18:58.729Z,100599.84
2023-06-19T12:21:35.095Z,100592.47
2023-06-19T12:24:09.021Z,100605.84
2023-06-19T12:26:38.762Z,100599.63
2023-06-19T12:29:07.972Z,100608.25
2023-06-19T12:31:37.164Z,100599.81
2023-06-19T12:34:16.936Z,100598.84
2023-06-19T12:36:55.243Z,100593.47
2023-06-19T12:39:25.844Z,100602.13
2023-06-19T12:41:53.767Z,100612.69
2023-06-19T12:44:23.996Z,100619.28
2023-06-19T12:46:52.078Z,100623.09
2023-06-19T12:49:19.870Z,100621.84
2023-06-19T12:51:50.131Z,100635.56
2023-06-19T12:54:17.943Z,100627.63
2023-06-19T12:56:47.122Z,100625.81
2023-06-19T12:59:14.981Z,100631.34
2023-06-19T13:01:43.239Z,100631.56
2023-06-19T13:04:11.949Z,100634.09
2023-06-19T13:06:39.834Z,100625.75
2023-06-19T13:09:08.882Z,100627.75
2023-06-19T13:11:36.898Z,100622.44
2023-06-19T13:14:07.268Z,100607.34
2023-06-19T13:16:46.120Z,100612.94
2023-06-19T13:19:14.987Z,100623.41
2023-06-19T13:21:43.385Z,100619.63
2023-06-19T13:24:11.289Z,100617.88
2023-06-19T13:26:39.292Z,100618.47
2023-06-19T13:29:08.651Z,100628.19
2023-06-19T13:31:36.568Z,100620.94
2023-06-19T13:34:04.633Z,100631.59
2023-06-19T13:36:32.830Z,100627.91
2023-06-19T13:39:00.721Z,100635.41
2023-06-19T13:41:29.324Z,100620.34
2023-06-19T13:43:57.325Z,100635.63
2023-06-19T13:46:26.737Z,100632.84
2023-06-19T13:48:54.865Z,100639.03
2023-06-19T13:51:24.021Z,100631.13
2023-06-19T13:53:53.177Z,100626.63
2023-06-19T13:56:21.127Z,100628.13
2023-06-19T13:58:48.983Z,100630.19
2023-06-19T14:01:16.887Z,100626.25
2023-06-19T14:03:46.194Z,100622.00
2023-06-19T14:06:14.419Z,100632.59
2023-06-19T14:08:42.274Z,100621.00
2023-06-19T14:11:10.544Z,100634.44
2023-06-19T14:13:38.585Z,100628.78
2023-06-19T14:16:06.430Z,100625.53
2023-06-19T14:18:34.695Z,100642.19
2023-06-19T14:21:03.861Z,100638.50
2023-06-19T14:23:32.100Z,100641.41
2023-06-19T14:25:59.936Z,100636.84
2023-06-19T14:28:27.699Z,100643.69
2023-06-19T14:30:55.563Z,100638.09
2023-06-19T14:33:23.823Z,100642.41
2023-06-19T14:35:53.257Z,100641.88
2023-06-19T14:38:22.750Z,100636.41
2023-06-19T14:40:51.338Z,100635.41
2023-06-19T14:43:19.310Z,100644.09
2023-06-19T14:45:47.147Z,100648.03
2023-06-19T14:48:15.098Z,100655.31
2023-06-19T14:50:43.211Z,100643.06
2023-06-19T14:53:11.038Z,100655.00
2023-06-19T14:55:44.384Z,100651.81
2023-06-19T14:58:12.347Z,100646.25
2023-06-19T15:00:40.587Z,100649.81
2023-06-19T15:03:08.649Z,100643.63
2023-06-19T15:05:36.593Z,100654.25
2023-06-19T15:08:06.360Z,100652.03
2023-06-19T15:10:34.453Z,100645.84
2023-06-19T15:13:03.555Z,100650.09
2023-06-19T15:15:31.371Z,100644.09
2023-06-19T15:17:59.337Z,100656.09
2023-06-19T15:20:27.214Z,100646.09
2023-06-19T15:22:55.127Z,100648.19
2023-06-19T15:25:23.022Z,100639.25
2023-06-19T15:27:50.987Z,100637.19
2023-06-19T15:30:20.163Z,100646.03
2023-06-19T15:32:47.947Z,100638.53
2023-06-19T15:35:16.130Z,100634.03
2023-06-19T15:37:43.957Z,100633.53
2023-06-19T15:40:13.676Z,100629.09
2023-06-19T15:42:41.543Z,100634.53
2023-06-19T15:45:11.791Z,100623.72
2023-06-19T15:47:40.967Z,100625.44
2023-06-19T15:50:10.512Z,100624.88
2023-06-19T15:52:38.277Z,100626.28
2023-06-19T15:55:06.809Z,100625.88
2023-06-19T15:57:34.576Z,100618.97
2023-06-19T16:00:02.395Z,100614.31
2023-06-19T16:02:44.437Z,100612.88
2023-06-19T16:05:12.524Z,100613.22
2023-06-19T16:07:47.455Z,100613.34
2023-06-19T16:10:16.994Z,100616.16
2023-06-19T16:12:45.460Z,100609.53
2023-06-19T16:15:14.456Z,100615.41
2023-06-19T16:17:45.106Z,100616.13
2023-06-19T16:20:13.650Z,100620.66
2023-06-19T16:22:41.439Z,100610.63
2023-06-19T16:25:11.884Z,100611.53
2023-06-19T16:27:39.735Z,100607.78
2023-06-19T16:30:08.887Z,100615.47
2023-06-19T16:32:36.805Z,100619.50
2023-06-19T16:35:07.342Z,100605.59
2023-06-19T16:37:35.247Z,100615.13
2023-06-19T16:40:06.191Z,100609.28
2023-06-19T16:42:34.045Z,100614.34
2023-06-19T16:45:01.857Z,100610.88
2023-06-19T16:47:29.762Z,100606.28
2023-06-19T16:49:57.570Z,100613.44
2023-06-19T16:52:27.636Z,100607.22
2023-06-19T16:54:55.852Z,100613.28
2023-06-19T16:57:24.935Z,100606.19
2023-06-19T16:59:53.032Z,100598.13
2023-06-19T17:02:21.086Z,100608.03
2023-06-19T17:04:49.315Z,100617.88
2023-06-19T17:07:17.210Z,100605.72
2023-06-19T17:09:47.214Z,100602.06
2023-06-19T17:12:15.916Z,100613.22
2023-06-19T17:14:44.141Z,100612.09
2023-06-19T17:17:12.098Z,100605.09
2023-06-19T17:19:40.157Z,100606.09
2023-06-19T17:22:08.094Z,100610.13
2023-06-19T17:24:36.034Z,100618.94
2023-06-19T17:27:05.968Z,100614.44
2023-06-19T17:32:19.926Z,100611.66
2023-06-19T17:34:47.900Z,100614.31
2023-06-19T17:37:15.841Z,100619.00
2023-06-19T17:39:43.864Z,100620.28
2023-06-19T17:42:13.341Z,100618.59
2023-06-19T17:44:41.183Z,100623.28
2023-06-19T17:47:09.198Z,100621.28
2023-06-19T17:49:38.237Z,100620.44
2023-06-19T17:52:06.515Z,100628.59
2023-06-19T17:54:34.339Z,100624.84
2023-06-19T17:57:02.399Z,100621.56
2023-06-19T17:59:31.845Z,100622.16
2023-06-19T18:01:59.839Z,100618.41
2023-06-19T18:04:27.921Z,100620.06
2023-06-19T18:06:55.869Z,100621.41
2023-06-19T18:09:23.921Z,100628.63
2023-06-19T18:11:51.855Z,100630.94
2023-06-19T18:14:21.451Z,100633.03
2023-06-19T18:16:50.826Z,100634.75
2023-06-19T18:19:18.868Z,100637.16
2023-06-19T18:21:46.792Z,100642.88
2023-06-19T18:24:14.978Z,100645.59
2023-06-19T18:26:42.884Z,100642.38
2023-06-19T18:29:10.795Z,100638.63
2023-06-19T18:31:38.603Z,100637.50
2023-06-19T18:34:07.759Z,100640.50
2023-06-19T18:36:35.717Z,100642.69
2023-06-19T18:39:03.609Z,100636.38
2023-06-19T18:41:31.635Z,100635.53
2023-06-19T18:43:59.529Z,100643.16
2023-06-19T18:46:27.688Z,100641.34
2023-06-19T18:48:55.600Z,100632.69
2023-06-19T18:51:24.893Z,100636.53
2023-06-19T18:53:52.901Z,100644.94
2023-06-19T18:56:20.793Z,100650.41
2023-06-19T18:58:48.713Z,100647.47
2023-06-19T19:01:16.679Z,100646.25
2023-06-19T19:03:44.661Z,100643.63
2023-06-19T19:06:12.661Z,100645.38
2023-06-19T19:08:41.870Z,100649.22
2023-06-19T19:11:09.803Z,100647.50
2023-06-19T19:13:37.896Z,100645.38
2023-06-19T19:16:06.501Z,100653.44
2023-06-19T19:18:34.578Z,100655.22
2023-06-19T19:21:02.450Z,100663.59
2023-06-19T19:23:30.397Z,100656.47
2023-06-19T19:25:59.873Z,100663.50
2023-06-19T19:28:28.065Z,100658.34
2023-06-19T19:30:56.221Z,100665.38
2023-06-19T19:33:24.235Z,100665.41
2023-06-19T19:35:52.195Z,100671.34
2023-06-19T19:38:21.042Z,100673.91
2023-06-19T19:40:49.571Z,100676.66
2023-06-19T19:43:18.996Z,100677.72
2023-06-19T19:45:46.875Z,100675.41
2023-06-19T19:48:14.781Z,100674.34
2023-06-19T19:50:42.764Z,100676.84
2023-06-19T19:53:10.677Z,100682.16
2023-06-19T19:55:38.485Z,100680.03
2023-06-19T19:58:06.574Z,100680.66
2023-06-19T20:00:35.831Z,100686.59
2023-06-19T20:03:04.035Z,100693.41
2023-06-19T20:05:32.112Z,100693.81
2023-06-19T20:08:00.123Z,100690.34
2023-06-19T20:10:28.219Z,100699.28
2023-06-19T20:12:56.432Z,100700.19
2023-06-19T20:15:26.345Z,100696.38
2023-06-19T20:17:55.692Z,100702.97
2023-06-19T20:20:24.055Z,100707.88
2023-06-19T20:22:52.216Z,100703.81
2023-06-19T20:25:21.618Z,100703.16
2023-06-19T20:28:02.731Z,100709.94
2023-06-19T20:30:35.262Z,100717.78
2023-06-19T20:33:04.779Z,100709.94
2023-06-19T20:35:32.711Z,100711.59
2023-06-19T20:38:00.671Z,100715.03
2023-06-19T20:40:28.907Z,100715.25
2023-06-19T20:42:56.778Z,100712.06
2023-06-19T20:45:25.965Z,100716.28
2023-06-19T20:47:54.170Z,100715.41
2023-06-19T20:50:24.202Z,100709.44
2023-06-19T20:52:52.737Z,100711.97
2023-06-19T20:55:20.816Z,100704.34
2023-06-19T20:57:48.771Z,100705.38
2023-06-19T21:00:17.114Z,100713.63
2023-06-19T21:02:45.326Z,100715.34
2023-06-19T21:05:16.383Z,100720.19
2023-06-19T21:07:46.696Z,100717.00
2023-06-19T21:10:15.494Z,100715.50
2023-06-19T21:12:43.498Z,100723.44
2023-06-19T21:15:12.602Z,100721.94
2023-06-19T21:17:40.628Z,100728.56
2023-06-19T21:20:11.117Z,100722.25
2023-06-19T21:22:39.365Z,100730.34
2023-06-19T21:25:09.376Z,100731.00
2023-06-19T21:27:37.364Z,100720.56
2023-06-19T21:30:05.902Z,100724.28
2023-06-19T21:32:34.078Z,100721.03
2023-06-19T21:35:02.107Z,100722.13
2023-06-19T21:37:30.747Z,100728.63
2023-06-19T21:39:58.555Z,100722.34
2023-06-19T21:42:27.762Z,100727.81
2023-06-19T21:44:55.802Z,100734.66
2023-06-19T21:47:23.698Z,100726.53
2023-06-19T21:49:51.654Z,100728.38
2023-06-19T21:52:19.848Z,100730.72
2023-06-19T21:54:47.716Z,100726.91
2023-06-19T21:57:15.720Z,100722.03
2023-06-19T21:59:45.045Z,100723.75
2023-06-19T22:02:14.897Z,100716.31
2023-06-19T22:04:42.893Z,100713.59
2023-06-19T22:07:10.967Z,100718.63
2023-06-19T22:09:38.921Z,100714.81
2023-06-19T22:12:08.087Z,100715.13
2023-06-19T22:14:41.486Z,100718.09
2023-06-19T22:17:10.803Z,100725.56
2023-06-19T22:19:40.016Z,100721.19
2023-06-19T22:22:08.691Z,100728.38
2023-06-19T22:24:37.660Z,100721.47
2023-06-19T22:27:06.178Z,100725.50
2023-06-19T22:29:34.613Z,100720.84
2023-06-19T22:32:02.666Z,100728.75
2023-06-19T22:34:32.319Z,100724.19
2023-06-19T22:37:00.182Z,100723.03
2023-06-19T22:39:28.644Z,100726.66
2023-06-19T22:41:56.680Z,100719.72
2023-06-19T22:44:24.456Z,100721.88
2023-06-19T22:46:52.256Z,100726.53
2023-06-19T22:49:20.030Z,100722.97
2023-06-19T22:51:49.204Z,100716.19
2023-06-19T22:54:20.162Z,100722.88
2023-06-19T22:56:47.938Z,100735.34
2023-06-19T22:59:15.901Z,100738.13
2023-06-19T23:01:43.692Z,100732.16
2023-06-19T23:04:11.599Z,100717.97
2023-06-19T23:06:43.984Z,100723.38
2023-06-19T23:09:13.930Z,100722.97
2023-06-19T23:11:42.943Z,100723.69
2023-06-19T23:14:10.886Z,100720.81
2023-06-19T23:16:41.507Z,100717.19
2023-06-19T23:19:10.056Z,100708.56
2023-06-19T23:21:37.847Z,100718.91
2023-06-19T23:24:06.479Z,100720.66
2023-06-19T23:26:35.954Z,100714.84
2023-06-19T23:29:04.544Z,100718.47
2023-06-19T23:31:32.408Z,100719.84
2023-06-19T23:34:01.022Z,100733.72
2023-06-19T23:36:29.430Z,100723.94
2023-06-19T23:38:57.364Z,100732.06
2023-06-19T23:41:25.232Z,100733.88
2023-06-19T23:43:54.414Z,100735.59
2023-06-19T23:46:22.343Z,100730.69
2023-06-19T23:48:50.162Z,100724.22
2023-06-19T23:51:18.111Z,100721.75
2023-06-19T23:53:45.874Z,100719.38
2023-06-19T23:56:13.751Z,100731.72
2023-06-19T23:58:41.523Z,100736.25
